Time;durP1;ratioP1;P1;durP2;ratioP2;P2;SDS_P1;SDS_P2;PMS_P1;PMS_P2;Temp;Humidity;BMP_temperature;BMP_pressure;BME280_temperature;BME280_humidity;BME280_pressure;Samples;Min_cycle;Max_cycle;Signal;HPM_P1;HPM_P2
2022/02/05 00:00:35;;;;;;;22.05;13.80;;;27.30;89.40;;;;;;5045796;28;20025;-50
2022/02/05 00:05:40;;;;;;;17.58;11.93;;;27.40;88.80;;;;;;5044964;28;20033;-54
2022/02/05 00:19:54;;;;;;;21.92;13.98;;;27.40;88.30;;;;;;5043150;28;20333;-46
2022/02/05 00:38:52;;;;;;;18.05;11.43;;;27.30;88.50;;;;;;5042275;28;20091;-53
2022/02/05 00:41:33;;;;;;;16.40;10.13;;;27.40;88.30;;;;;;5045650;28;20029;-48
2022/02/05 00:44:02;;;;;;;16.25;10.65;;;27.30;88.40;;;;;;5045060;28;20024;-44
2022/02/05 00:46:36;;;;;;;13.23;10.43;;;27.30;88.40;;;;;;5045291;28;20328;-46
2022/02/05 00:49:02;;;;;;;19.00;9.60;;;27.30;88.40;;;;;;5044632;28;20029;-46
2022/02/05 00:51:41;;;;;;;21.05;10.02;;;27.30;88.50;;;;;;5044962;28;20208;-46
2022/02/05 00:54:13;;;;;;;11.25;9.02;;;27.30;88.50;;;;;;5044568;28;20017;-47
2022/02/05 00:59:08;;;;;;;16.88;9.70;;;27.20;88.20;;;;;;5044515;28;20245;-52
2022/02/05 01:01:35;;;;;;;18.40;9.73;;;27.20;88.20;;;;;;5044221;28;20026;-45
2022/02/05 01:04:03;;;;;;;17.05;10.00;;;27.30;88.10;;;;;;5044239;28;20068;-50
2022/02/05 01:06:29;;;;;;;14.90;10.30;;;27.20;87.80;;;;;;5044674;28;20033;-46
2022/02/05 01:08:56;;;;;;;14.10;9.18;;;27.20;87.70;;;;;;5044212;28;20024;-45
2022/02/05 01:11:23;;;;;;;21.00;10.15;;;27.30;87.60;;;;;;5059819;28;20033;-47
2022/02/05 01:13:51;;;;;;;16.30;10.10;;;27.20;87.50;;;;;;5044339;28;20013;-46
2022/02/05 01:16:31;;;;;;;18.98;9.82;;;27.20;87.30;;;;;;5044495;28;20036;-45
2022/02/05 01:18:58;;;;;;;15.13;9.77;;;27.20;87.10;;;;;;5058428;28;20032;-52
2022/02/05 01:24:00;;;;;;;22.05;10.23;;;27.20;87.20;;;;;;5044052;28;20013;-44
2022/02/05 01:26:42;;;;;;;16.15;10.18;;;27.20;87.10;;;;;;5074439;28;20244;-43
2022/02/05 01:29:26;;;;;;;14.40;10.37;;;27.20;87.20;;;;;;5044069;28;20064;-48
2022/02/05 01:31:57;;;;;;;15.18;10.10;;;27.20;87.30;;;;;;5044452;28;20328;-47
2022/02/05 02:12:24;;;;;;;37.60;33.70;;;27.00;86.30;;;;;;5029041;28;19959;-48
2022/02/05 02:15:05;;;;;;;39.72;35.97;;;27.00;86.30;;;;;;5047535;28;20045;-47
2022/02/05 02:22:57;;;;;;;20.42;12.82;;;27.00;86.00;;;;;;5047594;28;20017;-46
2022/02/05 02:28:14;;;;;;;21.17;11.63;;;27.00;85.80;;;;;;5047289;28;20014;-51
2022/02/05 02:30:52;;;;;;;14.60;9.95;;;27.00;85.70;;;;;;5074417;28;20051;-47
2022/02/05 02:33:33;;;;;;;18.38;10.68;;;26.90;85.50;;;;;;5047397;28;20373;-47
2022/02/05 02:36:00;;;;;;;20.05;9.90;;;26.90;85.30;;;;;;5047538;28;20032;-52
2022/02/05 02:38:36;;;;;;;18.75;10.30;;;26.90;85.10;;;;;;5047224;28;20085;-51
2022/02/05 02:41:11;;;;;;;17.13;9.82;;;26.90;85.10;;;;;;5047905;28;20205;-49
2022/02/05 02:43:38;;;;;;;13.80;9.23;;;27.00;85.60;;;;;;5062836;28;20021;-49
2022/02/05 02:46:05;;;;;;;15.60;10.23;;;26.90;85.00;;;;;;5062335;28;20060;-45
2022/02/05 02:48:35;;;;;;;22.25;10.30;;;26.90;85.00;;;;;;5048254;28;20013;-45
2022/02/05 02:59:47;;;;;;;19.25;10.18;;;26.90;84.50;;;;;;5046850;28;20020;-48
2022/02/05 03:02:08;;;;;;;38.33;34.20;;;26.90;84.60;;;;;;5046361;28;20033;-47
2022/02/05 03:04:34;;;;;;;37.80;33.85;;;26.90;84.60;;;;;;5046371;28;20333;-46
2022/02/05 03:07:01;;;;;;;41.67;37.42;;;26.90;84.40;;;;;;5065902;28;20032;-44
2022/02/05 03:09:28;;;;;;;24.05;20.77;;;26.90;84.40;;;;;;5066846;28;20021;-45
2022/02/05 03:11:54;;;;;;;18.42;15.20;;;26.80;84.10;;;;;;5067196;28;20070;-52
2022/02/05 03:14:21;;;;;;;15.50;13.13;;;26.80;84.20;;;;;;5067133;28;20017;-47
2022/02/05 03:16:51;;;;;;;16.63;11.80;;;26.80;84.40;;;;;;5067343;28;20025;-48
2022/02/05 03:19:19;;;;;;;17.80;11.52;;;26.80;84.20;;;;;;5065876;28;20021;-48
2022/02/05 03:21:46;;;;;;;14.30;10.40;;;26.80;84.50;;;;;;5065414;28;20036;-53
2022/02/05 03:24:13;;;;;;;12.52;10.30;;;26.80;84.60;;;;;;5064802;28;20008;-46
2022/02/05 03:26:40;;;;;;;12.48;10.45;;;26.80;84.60;;;;;;5065716;28;20236;-49
2022/02/05 03:29:09;;;;;;;12.98;10.02;;;26.80;85.00;;;;;;5065188;28;20024;-47
2022/02/05 03:31:36;;;;;;;24.83;20.48;;;26.70;85.10;;;;;;5062601;28;20301;-47
2022/02/05 03:34:05;;;;;;;34.25;30.75;;;26.70;85.00;;;;;;5064863;28;20263;-56
2022/02/05 03:36:32;;;;;;;27.20;24.38;;;26.70;85.10;;;;;;5064954;28;20321;-44
2022/02/05 03:38:59;;;;;;;29.27;26.00;;;26.80;85.40;;;;;;5064984;28;20025;-45
2022/02/05 03:41:26;;;;;;;23.17;20.10;;;26.80;85.50;;;;;;5065221;28;20314;-45
2022/02/05 03:43:53;;;;;;;18.58;15.93;;;26.70;85.20;;;;;;5064866;28;20080;-48
2022/02/05 03:46:19;;;;;;;19.63;15.57;;;26.80;85.10;;;;;;5065021;28;20020;-49
2022/02/05 03:48:46;;;;;;;17.77;14.50;;;26.80;84.80;;;;;;5065897;28;20025;-47
2022/02/05 03:51:12;;;;;;;15.70;12.38;;;26.80;84.70;;;;;;5066211;28;20108;-50
2022/02/05 03:53:39;;;;;;;15.88;12.50;;;26.80;84.60;;;;;;5065079;28;20035;-49
2022/02/05 03:56:06;;;;;;;19.13;12.55;;;26.80;84.40;;;;;;5066268;28;20031;-44
2022/02/05 03:58:32;;;;;;;12.65;11.10;;;26.80;84.10;;;;;;5082655;28;20025;-45
2022/02/05 04:00:59;;;;;;;12.13;10.65;;;26.80;83.90;;;;;;5066510;28;20028;-50
2022/02/05 04:03:26;;;;;;;17.48;11.73;;;26.80;83.80;;;;;;5066227;28;20043;-47
2022/02/05 04:05:52;;;;;;;14.98;11.35;;;26.80;83.50;;;;;;5065338;28;20060;-45
2022/02/05 04:08:19;;;;;;;13.98;10.40;;;26.90;83.40;;;;;;5065293;28;20307;-45
2022/02/05 04:10:51;;;;;;;16.05;10.43;;;26.80;83.30;;;;;;5065738;28;20071;-52
2022/02/05 04:16:22;;;;;;;14.00;9.88;;;26.90;83.20;;;;;;5065545;28;20031;-48
2022/02/05 04:18:54;;;;;;;11.82;9.77;;;26.90;83.10;;;;;;5065331;28;20340;-46
2022/02/05 04:21:22;;;;;;;11.30;9.48;;;26.90;83.00;;;;;;5065474;28;20029;-47
2022/02/05 04:23:50;;;;;;;13.32;9.07;;;26.90;82.90;;;;;;5065357;28;20023;-49
2022/02/05 04:26:19;;;;;;;11.18;9.40;;;26.90;82.90;;;;;;5065716;28;20028;-45
2022/02/05 04:28:45;;;;;;;10.52;9.25;;;26.90;82.80;;;;;;5065430;28;20025;-53
2022/02/05 04:31:12;;;;;;;11.68;9.13;;;26.90;82.70;;;;;;5065818;28;20033;-47
2022/02/05 04:33:39;;;;;;;14.85;9.25;;;26.90;82.60;;;;;;5065685;28;20017;-47
2022/02/05 04:36:07;;;;;;;12.55;9.07;;;26.90;82.60;;;;;;5064607;28;20025;-49
2022/02/05 04:38:36;;;;;;;11.13;9.32;;;26.90;83.10;;;;;;5065457;28;20308;-48
2022/02/05 04:49:22;;;;;;;9.80;8.73;;;26.90;82.50;;;;;;5011040;28;20042;-51
2022/02/05 04:54:40;;;;;;;10.23;9.23;;;26.90;82.50;;;;;;5064514;28;20005;-48
2022/02/05 04:57:25;;;;;;;10.15;8.80;;;26.90;82.50;;;;;;5064895;28;20100;-48
2022/02/05 05:08:06;;;;;;;10.27;9.07;;;26.90;82.50;;;;;;5064484;28;20013;-47
2022/02/05 05:10:57;;;;;;;10.45;8.40;;;26.90;83.00;;;;;;5064440;28;20092;-46
2022/02/05 05:13:34;;;;;;;11.13;8.35;;;26.90;82.60;;;;;;5063748;28;20033;-48
2022/02/05 05:21:25;;;;;;;12.77;8.80;;;26.90;82.60;;;;;;5064320;28;20388;-47
2022/02/05 05:23:52;;;;;;;12.52;9.05;;;26.90;82.50;;;;;;5064046;28;20078;-47
2022/02/05 05:26:18;;;;;;;9.80;8.52;;;26.90;82.50;;;;;;5064401;28;20029;-46
2022/02/05 05:28:45;;;;;;;10.30;8.60;;;26.90;82.50;;;;;;5064194;28;20024;-49
2022/02/05 05:31:11;;;;;;;10.23;8.20;;;26.90;82.50;;;;;;5064438;28;20099;-51
2022/02/05 05:33:38;;;;;;;12.90;8.98;;;26.90;82.40;;;;;;5063992;28;20320;-52
2022/02/05 05:36:05;;;;;;;9.45;8.40;;;26.90;82.30;;;;;;5064126;28;20070;-47
2022/02/05 05:38:31;;;;;;;12.13;9.00;;;26.90;82.20;;;;;;5063869;28;20016;-52
2022/02/05 05:40:58;;;;;;;8.88;8.07;;;26.90;82.10;;;;;;5064041;28;20100;-47
2022/02/05 05:43:43;;;;;;;12.27;8.73;;;26.90;82.20;;;;;;5063883;28;20067;-48
2022/02/05 05:46:19;;;;;;;14.20;8.18;;;26.90;82.20;;;;;;5064095;28;20339;-49
2022/02/05 05:51:19;;;;;;;11.73;8.73;;;26.90;82.20;;;;;;5063961;28;20208;-47
2022/02/05 05:53:47;;;;;;;13.38;8.57;;;26.90;82.20;;;;;;5063697;28;20017;-47
2022/02/05 05:56:14;;;;;;;10.88;8.20;;;26.80;82.20;;;;;;5063861;28;20075;-47
2022/02/05 05:58:40;;;;;;;12.23;7.97;;;26.80;82.20;;;;;;5063661;28;20186;-48
2022/02/05 06:01:07;;;;;;;13.07;8.35;;;26.90;82.30;;;;;;5063896;28;20317;-47
2022/02/05 06:03:34;;;;;;;11.32;8.43;;;26.90;82.50;;;;;;5063450;28;20052;-50
2022/02/05 06:06:01;;;;;;;11.48;8.93;;;26.80;82.40;;;;;;5063855;28;20025;-46
2022/02/05 06:08:27;;;;;;;16.50;8.65;;;26.90;82.60;;;;;;5063585;28;20032;-48
2022/02/05 06:10:54;;;;;;;11.43;8.30;;;26.80;82.60;;;;;;5063571;28;20068;-46
2022/02/05 06:13:20;;;;;;;10.27;8.75;;;26.80;82.60;;;;;;5063545;28;20024;-50
2022/02/05 06:15:49;;;;;;;12.13;8.45;;;26.80;82.60;;;;;;5063525;28;20052;-49
2022/02/05 06:18:16;;;;;;;10.70;8.07;;;26.80;82.60;;;;;;5063591;28;20028;-47
2022/02/05 06:20:42;;;;;;;11.27;8.52;;;26.80;82.60;;;;;;5063717;28;20096;-50
2022/02/05 06:23:09;;;;;;;9.93;8.18;;;26.80;82.60;;;;;;5063369;28;20067;-50
2022/02/05 06:25:38;;;;;;;14.95;9.00;;;26.90;82.70;;;;;;5063433;28;20084;-47
2022/02/05 06:28:05;;;;;;;9.65;8.65;;;26.80;82.60;;;;;;5063345;28;20024;-48
2022/02/05 06:30:31;;;;;;;8.85;8.02;;;26.80;82.70;;;;;;5063390;28;20024;-47
2022/02/05 06:32:58;;;;;;;14.93;8.30;;;26.80;82.80;;;;;;5063236;28;20016;-49
2022/02/05 06:35:25;;;;;;;13.80;8.95;;;26.80;82.80;;;;;;5063437;28;20029;-47
2022/02/05 06:37:51;;;;;;;12.07;8.48;;;26.80;82.80;;;;;;5063322;28;20216;-50
2022/02/05 06:40:18;;;;;;;10.70;7.95;;;26.80;82.80;;;;;;5063268;28;20197;-49
2022/02/05 06:42:46;;;;;;;8.93;8.02;;;26.80;82.70;;;;;;5063297;28;20032;-47
2022/02/05 06:45:17;;;;;;;13.68;8.73;;;26.80;82.80;;;;;;5063312;28;20088;-51
2022/02/05 06:47:43;;;;;;;11.45;8.43;;;26.80;82.80;;;;;;5063068;28;20048;-47
2022/02/05 06:50:11;;;;;;;14.10;8.52;;;26.80;82.80;;;;;;5063322;28;20051;-52
2022/02/05 06:52:38;;;;;;;10.38;8.23;;;26.80;82.80;;;;;;5063109;28;20021;-49
2022/02/05 06:55:07;;;;;;;10.88;8.45;;;26.80;82.80;;;;;;5063188;28;20323;-51
2022/02/05 06:57:34;;;;;;;16.92;8.60;;;26.80;82.90;;;;;;5063093;28;20356;-48
2022/02/05 07:00:00;;;;;;;13.35;9.00;;;26.80;82.80;;;;;;5066344;28;20021;-48
2022/02/05 07:02:27;;;;;;;11.75;8.65;;;26.80;82.90;;;;;;5066528;28;20337;-50
2022/02/05 07:04:54;;;;;;;11.38;8.23;;;26.80;82.80;;;;;;5066618;28;20249;-50
2022/02/05 07:07:20;;;;;;;13.70;8.10;;;26.90;82.90;;;;;;5066604;28;20050;-46
2022/02/05 07:09:47;;;;;;;14.13;9.20;;;26.80;82.80;;;;;;5066725;28;20020;-54
2022/02/05 07:12:13;;;;;;;12.35;8.35;;;26.80;82.80;;;;;;5066260;28;20329;-56
2022/02/05 07:14:57;;;;;;;11.18;8.30;;;26.80;82.80;;;;;;5066444;28;20021;-46
2022/02/05 07:17:35;;;;;;;12.35;7.78;;;26.80;82.80;;;;;;5066281;28;20029;-50
2022/02/05 07:22:43;;;;;;;14.95;8.20;;;26.80;82.80;;;;;;5066277;28;20201;-47
2022/02/05 07:30:21;;;;;;;11.60;8.30;;;26.80;82.80;;;;;;5066690;28;20251;-49
2022/02/05 07:32:48;;;;;;;13.98;8.27;;;26.80;82.80;;;;;;5066174;28;20316;-51
2022/02/05 07:35:14;;;;;;;10.40;7.85;;;26.80;82.80;;;;;;5066085;28;20028;-46
2022/02/05 07:37:41;;;;;;;12.38;8.60;;;26.80;82.80;;;;;;5065954;28;20021;-49
2022/02/05 07:40:08;;;;;;;15.45;8.82;;;26.80;82.70;;;;;;5066090;28;20025;-48
2022/02/05 07:42:35;;;;;;;10.77;8.18;;;26.80;82.70;;;;;;5065692;28;20312;-46
2022/02/05 07:45:01;;;;;;;15.65;8.98;;;26.80;82.80;;;;;;5065917;28;20020;-48
2022/02/05 07:47:33;;;;;;;12.95;8.23;;;26.80;82.80;;;;;;5065950;28;20025;-46
2022/02/05 07:50:00;;;;;;;11.60;8.07;;;26.80;82.90;;;;;;5065650;28;20032;-48
2022/02/05 07:52:27;;;;;;;12.15;8.13;;;26.80;82.90;;;;;;5065600;28;20262;-47
2022/02/05 07:54:53;;;;;;;13.90;8.10;;;26.80;82.90;;;;;;5065713;28;20017;-52
2022/02/05 07:57:20;;;;;;;11.80;8.77;;;26.80;82.90;;;;;;5065603;28;20025;-46
2022/02/05 07:59:46;;;;;;;10.48;8.13;;;26.80;82.80;;;;;;5065603;28;20045;-48
2022/02/05 08:02:13;;;;;;;11.60;8.00;;;26.80;83.00;;;;;;5065477;28;20210;-53
2022/02/05 08:04:40;;;;;;;11.70;8.35;;;26.80;82.90;;;;;;5065453;28;20032;-49
2022/02/05 08:07:08;;;;;;;11.82;7.72;;;26.80;83.00;;;;;;5065683;28;20024;-50
2022/02/05 08:09:53;;;;;;;11.52;8.02;;;26.80;82.90;;;;;;5065449;28;20347;-52
2022/02/05 08:12:20;;;;;;;12.25;8.00;;;26.80;82.90;;;;;;5065315;28;20044;-52
2022/02/05 08:14:50;;;;;;;12.45;8.50;;;26.80;82.90;;;;;;5064514;28;20021;-50
2022/02/05 08:17:50;;;;;;;13.63;8.25;;;26.80;82.90;;;;;;5058259;28;20234;-50
2022/02/05 08:20:10;;;;;;;11.57;8.52;;;26.80;82.90;;;;;;5064252;28;20033;-47
2022/02/05 08:22:36;;;;;;;11.93;8.30;;;26.80;83.00;;;;;;5065141;28;20259;-48
2022/02/05 08:25:03;;;;;;;11.57;8.20;;;26.80;83.00;;;;;;5065189;28;20058;-48
2022/02/05 08:27:30;;;;;;;12.93;8.50;;;26.80;83.00;;;;;;5065124;28;20021;-52
2022/02/05 08:29:59;;;;;;;11.45;8.35;;;26.80;83.00;;;;;;5064922;28;20012;-51
2022/02/05 08:32:28;;;;;;;11.75;8.00;;;26.80;83.00;;;;;;5065464;28;20190;-50
2022/02/05 08:35:00;;;;;;;10.45;8.15;;;26.80;83.00;;;;;;5064874;28;20250;-49
2022/02/05 08:37:27;;;;;;;13.43;8.88;;;26.80;83.00;;;;;;5064815;28;20105;-50
2022/02/05 08:39:54;;;;;;;11.82;7.95;;;26.80;83.00;;;;;;5064807;28;20225;-49
2022/02/05 08:42:21;;;;;;;10.70;8.38;;;26.80;83.20;;;;;;5064874;28;20021;-46
2022/02/05 08:44:47;;;;;;;9.10;7.90;;;26.80;83.20;;;;;;5064502;28;20025;-48
2022/02/05 08:47:14;;;;;;;11.18;8.35;;;26.80;83.20;;;;;;5064680;28;20024;-54
2022/02/05 08:49:41;;;;;;;12.07;7.97;;;26.80;83.40;;;;;;5064856;28;20084;-47
2022/02/05 08:52:10;;;;;;;11.38;8.00;;;26.80;83.50;;;;;;5064347;28;20025;-51
2022/02/05 08:54:38;;;;;;;14.82;8.77;;;26.80;83.60;;;;;;5064550;28;20365;-48
2022/02/05 08:57:06;;;;;;;11.23;8.20;;;26.80;83.60;;;;;;5065084;28;20040;-55
2022/02/05 08:59:46;;;;;;;12.05;8.20;;;26.80;83.60;;;;;;5064375;28;20066;-51
2022/02/05 09:02:21;;;;;;;10.25;7.90;;;26.80;83.50;;;;;;5064253;28;20139;-49
2022/02/05 09:07:47;;;;;;;12.68;8.40;;;26.80;83.70;;;;;;5041652;28;20033;-47
2022/02/05 09:10:38;;;;;;;12.18;7.82;;;26.70;83.80;;;;;;5064285;28;20029;-48
2022/02/05 09:13:36;;;;;;;11.75;8.15;;;26.70;83.90;;;;;;5063954;28;20190;-52
2022/02/05 09:15:57;;;;;;;9.52;8.55;;;26.80;84.00;;;;;;5063938;28;20186;-50
2022/02/05 09:18:23;;;;;;;11.13;8.77;;;26.70;84.00;;;;;;5064068;28;20017;-56
2022/02/05 09:20:50;;;;;;;16.48;8.10;;;26.70;84.10;;;;;;5063973;28;20029;-50
2022/02/05 09:23:16;;;;;;;10.18;8.40;;;26.70;84.10;;;;;;5064034;28;20020;-47
2022/02/05 09:25:43;;;;;;;11.90;8.23;;;26.80;84.20;;;;;;5064084;28;20035;-47
2022/02/05 09:28:10;;;;;;;15.63;8.50;;;26.70;84.10;;;;;;5063953;28;20016;-48
2022/02/05 09:30:50;;;;;;;12.57;8.25;;;26.70;84.30;;;;;;5063810;28;20320;-46
2022/02/05 09:33:17;;;;;;;11.13;8.80;;;26.70;84.30;;;;;;5063938;28;20028;-47
2022/02/05 09:35:44;;;;;;;16.00;8.68;;;26.70;84.50;;;;;;5064049;28;20075;-46
2022/02/05 09:38:10;;;;;;;12.88;8.23;;;26.70;84.40;;;;;;5063807;28;20012;-57
2022/02/05 09:40:37;;;;;;;10.57;8.35;;;26.70;84.40;;;;;;5064259;28;20340;-47
2022/02/05 09:43:03;;;;;;;9.88;8.75;;;26.70;84.50;;;;;;5063766;28;20063;-47
2022/02/05 09:45:34;;;;;;;10.48;8.38;;;26.80;84.70;;;;;;5063974;28;20028;-45
2022/02/05 09:48:00;;;;;;;11.85;8.00;;;26.70;84.50;;;;;;5063753;28;20229;-53
2022/02/05 09:50:27;;;;;;;12.60;8.15;;;26.70;84.40;;;;;;5063616;28;20041;-46
2022/02/05 09:52:54;;;;;;;12.57;8.48;;;26.70;84.40;;;;;;5063611;28;20013;-46
2022/02/05 09:55:21;;;;;;;11.98;8.57;;;26.70;84.40;;;;;;5063757;28;20044;-47
2022/02/05 09:57:48;;;;;;;19.10;8.82;;;26.70;84.50;;;;;;5063606;28;20017;-52
2022/02/05 10:00:17;;;;;;;12.02;8.80;;;26.70;84.50;;;;;;5063666;28;20198;-50
2022/02/05 10:02:44;;;;;;;12.80;9.15;;;26.70;84.70;;;;;;5063528;28;20104;-50
2022/02/05 10:05:19;;;;;;;10.57;9.25;;;26.70;84.60;;;;;;5063570;28;20033;-51
2022/02/05 10:07:56;;;;;;;12.88;8.40;;;26.70;84.60;;;;;;5063166;28;20048;-47
2022/02/05 10:10:24;;;;;;;11.38;8.70;;;26.70;84.70;;;;;;5063482;28;20025;-50
2022/02/05 10:13:07;;;;;;;12.02;8.55;;;26.70;84.80;;;;;;5063422;28;20334;-44
2022/02/05 10:15:35;;;;;;;13.48;8.55;;;26.70;84.90;;;;;;5063557;28;20039;-46
2022/02/05 10:18:03;;;;;;;13.52;9.13;;;26.70;85.00;;;;;;5063373;28;20059;-46
2022/02/05 10:20:30;;;;;;;12.30;8.90;;;26.70;85.00;;;;;;5063347;28;20056;-50
2022/02/05 10:23:08;;;;;;;13.68;8.50;;;26.70;85.00;;;;;;5063683;28;20027;-48
2022/02/05 10:25:35;;;;;;;10.68;8.65;;;26.70;85.00;;;;;;5063400;28;20067;-51
2022/02/05 10:28:06;;;;;;;21.13;8.57;;;26.70;85.60;;;;;;5063396;28;20066;-53
2022/02/05 10:30:33;;;;;;;15.50;9.65;;;26.70;85.80;;;;;;5063314;28;20029;-45
2022/02/05 10:33:09;;;;;;;15.40;8.70;;;26.70;85.20;;;;;;5063670;28;20028;-50
2022/02/05 10:35:50;;;;;;;15.65;8.77;;;26.70;85.20;;;;;;5059765;28;20021;-47
2022/02/05 10:41:02;;;;;;;15.13;8.85;;;26.70;85.40;;;;;;5067410;28;20044;-45
2022/02/05 10:43:36;;;;;;;14.53;9.17;;;26.70;85.40;;;;;;5067240;28;20316;-51
2022/02/05 10:46:03;;;;;;;17.13;8.98;;;26.70;85.40;;;;;;5067364;28;20594;-47
2022/02/05 10:48:31;;;;;;;14.02;9.00;;;26.60;85.40;;;;;;5067183;28;20054;-46
2022/02/05 10:51:00;;;;;;;12.88;8.63;;;26.60;85.40;;;;;;5067193;28;20029;-52
2022/02/05 10:53:32;;;;;;;11.73;8.45;;;26.60;85.40;;;;;;5066955;28;20028;-46
2022/02/05 11:07:14;;;;;;;10.52;8.88;;;26.60;85.60;;;;;;5067430;28;20205;-46
2022/02/05 11:09:44;;;;;;;12.20;8.73;;;26.70;85.80;;;;;;5066654;28;20060;-46
2022/02/05 11:20:17;;;;;;;26.35;9.68;;;26.60;86.30;;;;;;5058849;28;20017;-52
2022/02/05 11:22:47;;;;;;;27.38;9.45;;;26.60;86.40;;;;;;5066440;28;20021;-52
2022/02/05 11:25:15;;;;;;;15.10;9.55;;;26.60;86.30;;;;;;5066446;28;20056;-54
2022/02/05 11:27:49;;;;;;;17.83;9.75;;;26.60;86.40;;;;;;5066368;28;20189;-51
2022/02/05 11:30:34;;;;;;;13.50;10.00;;;26.60;86.60;;;;;;5066148;28;20264;-47
2022/02/05 11:33:07;;;;;;;24.20;10.10;;;26.60;86.70;;;;;;5065964;28;20021;-55
2022/02/05 11:35:45;;;;;;;15.48;10.02;;;26.50;86.90;;;;;;5066320;28;20021;-52
2022/02/05 11:38:12;;;;;;;15.98;10.00;;;26.60;86.80;;;;;;5057143;28;20013;-51
2022/02/05 11:40:42;;;;;;;14.82;10.07;;;26.60;87.00;;;;;;5064407;28;20129;-51
2022/02/05 11:43:22;;;;;;;17.05;10.18;;;26.60;87.00;;;;;;5064231;28;20032;-50
2022/02/05 11:46:14;;;;;;;14.10;9.27;;;26.60;87.10;;;;;;5063949;28;20029;-47
2022/02/05 11:48:42;;;;;;;18.65;10.85;;;26.60;87.00;;;;;;5064696;28;20027;-53
2022/02/05 11:51:14;;;;;;;17.35;10.38;;;26.50;86.80;;;;;;5038384;28;20041;-48
2022/02/05 11:53:59;;;;;;;18.80;10.37;;;26.60;86.90;;;;;;5065542;28;20382;-49
2022/02/05 11:56:34;;;;;;;16.75;9.82;;;26.60;86.80;;;;;;5066168;28;20464;-52
2022/02/05 11:59:01;;;;;;;15.32;10.13;;;26.60;86.70;;;;;;5065770;28;20309;-54
2022/02/05 12:01:36;;;;;;;13.35;9.77;;;26.60;86.50;;;;;;5065984;28;20035;-50
2022/02/05 12:04:29;;;;;;;12.60;10.38;;;26.60;86.50;;;;;;5047645;28;20260;-47
2022/02/05 12:07:05;;;;;;;44.70;12.23;;;26.60;86.60;;;;;;5064244;28;20056;-48
2022/02/05 12:09:47;;;;;;;62.47;12.10;;;26.50;86.40;;;;;;5065485;28;20031;-49
2022/02/05 12:12:27;;;;;;;19.55;11.25;;;26.60;86.40;;;;;;5065562;28;20028;-46
2022/02/05 20:35:09;;;;;;;53.65;34.13;;;27.60;76.90;;;;;;5101436;27;20430;-51
2022/02/05 20:37:36;;;;;;;62.42;42.83;;;28.10;75.10;;;;;;5101429;28;20052;-54
2022/02/05 20:40:05;;;;;;;57.65;40.72;;;28.10;75.30;;;;;;5101256;28;20065;-57
2022/02/05 20:42:33;;;;;;;92.47;63.28;;;28.20;74.40;;;;;;5101007;28;20028;-51
2022/02/05 20:45:00;;;;;;;67.35;45.90;;;28.20;74.70;;;;;;5101091;28;20050;-59
2022/02/05 20:47:27;;;;;;;64.22;47.28;;;28.20;74.20;;;;;;5101092;28;20075;-60
2022/02/05 20:50:03;;;;;;;61.92;44.53;;;28.30;74.00;;;;;;5100931;28;20215;-52
2022/02/05 20:52:31;;;;;;;64.25;48.15;;;28.30;73.90;;;;;;5100800;28;20263;-51
2022/02/05 20:55:03;;;;;;;56.47;39.78;;;28.30;73.80;;;;;;5100828;28;20082;-57
2022/02/05 20:57:39;;;;;;;62.67;41.35;;;28.30;73.10;;;;;;5100960;28;20200;-51
2022/02/05 21:00:12;;;;;;;47.90;30.42;;;28.30;73.00;;;;;;5099835;28;20020;-52
2022/02/05 21:02:40;;;;;;;44.85;31.38;;;28.30;72.30;;;;;;5099565;28;20470;-58
2022/02/05 21:05:08;;;;;;;60.80;30.90;;;28.40;72.50;;;;;;5100820;28;20024;-55
2022/02/05 21:07:35;;;;;;;33.00;19.00;;;28.30;72.40;;;;;;5078596;28;20020;-53
2022/02/05 21:10:05;;;;;;;24.50;14.88;;;28.40;71.70;;;;;;5099492;28;20028;-53
2022/02/05 21:12:32;;;;;;;21.17;13.68;;;28.40;70.30;;;;;;5100382;28;20028;-52
2022/02/05 21:14:58;;;;;;;19.65;11.65;;;28.40;70.30;;;;;;5098872;28;20028;-53
2022/02/05 21:17:26;;;;;;;15.35;10.68;;;28.40;70.30;;;;;;5100350;28;20017;-51
2022/02/05 21:19:58;;;;;;;16.02;9.55;;;28.40;70.70;;;;;;5099988;28;20035;-56
2022/02/05 21:22:27;;;;;;;16.02;9.68;;;28.40;70.70;;;;;;5100342;28;20016;-55
2022/02/05 21:24:58;;;;;;;18.27;9.52;;;28.50;70.70;;;;;;5100356;28;20024;-57
2022/02/05 21:27:30;;;;;;;15.27;8.05;;;28.50;71.20;;;;;;5100316;28;20036;-54
2022/02/05 21:30:01;;;;;;;14.43;7.63;;;28.50;71.60;;;;;;5100103;28;20012;-50
2022/02/05 21:32:41;;;;;;;11.68;7.97;;;28.50;71.00;;;;;;5100229;28;20023;-52
2022/02/05 21:35:11;;;;;;;17.15;8.30;;;28.50;71.00;;;;;;5091364;28;20104;-51
2022/02/05 21:37:37;;;;;;;16.08;8.50;;;28.50;71.50;;;;;;5086772;28;20335;-55
2022/02/05 21:40:05;;;;;;;11.95;7.63;;;28.50;71.50;;;;;;5085512;28;20024;-53
2022/02/05 21:42:32;;;;;;;13.65;8.32;;;28.50;71.80;;;;;;5086467;28;20070;-55
2022/02/05 21:44:59;;;;;;;14.68;7.80;;;28.50;72.00;;;;;;5086903;28;20066;-55
2022/02/05 21:47:28;;;;;;;15.45;8.65;;;28.50;72.40;;;;;;5086598;28;20337;-57
2022/02/05 21:50:05;;;;;;;17.05;7.72;;;28.50;72.60;;;;;;5086254;28;20040;-53
2022/02/05 21:52:33;;;;;;;16.63;7.82;;;28.50;72.90;;;;;;5086360;28;20012;-52
2022/02/05 21:55:08;;;;;;;19.38;7.78;;;28.50;73.00;;;;;;5086242;28;20023;-47
2022/02/05 21:57:47;;;;;;;14.20;7.70;;;28.50;73.30;;;;;;5086346;28;20227;-51
2022/02/05 22:00:17;;;;;;;14.25;7.80;;;28.50;73.50;;;;;;5086189;28;20020;-50
2022/02/05 22:02:45;;;;;;;13.15;7.50;;;28.50;73.80;;;;;;5085596;28;20339;-55
2022/02/05 22:05:11;;;;;;;11.93;7.00;;;28.50;73.90;;;;;;5086117;28;20012;-54
2022/02/05 22:07:38;;;;;;;16.50;7.28;;;28.50;74.20;;;;;;5086047;28;20020;-51
2022/02/05 22:10:05;;;;;;;16.25;7.40;;;28.50;74.70;;;;;;5086258;28;20012;-51
2022/02/05 22:12:32;;;;;;;13.73;6.32;;;28.50;74.70;;;;;;5086523;28;20028;-56
2022/02/05 22:14:59;;;;;;;11.25;7.15;;;28.50;74.80;;;;;;5086079;28;20016;-52
2022/02/05 22:17:26;;;;;;;12.48;7.10;;;28.50;75.00;;;;;;5086324;28;20023;-49
2022/02/05 22:19:52;;;;;;;13.65;6.97;;;28.50;75.10;;;;;;5086021;28;20008;-50
2022/02/05 22:22:20;;;;;;;15.32;6.97;;;28.50;75.20;;;;;;5085609;28;20020;-50
2022/02/05 22:24:46;;;;;;;18.90;7.72;;;28.50;75.40;;;;;;5085793;28;20027;-52
2022/02/05 22:27:13;;;;;;;15.10;8.10;;;28.50;75.40;;;;;;5085641;28;20036;-53
2022/02/05 22:29:40;;;;;;;11.45;7.82;;;28.50;75.70;;;;;;5085756;28;20027;-52
2022/02/05 22:32:07;;;;;;;12.25;8.05;;;28.50;76.00;;;;;;5085639;28;20185;-53
2022/02/05 22:34:34;;;;;;;22.90;8.60;;;28.50;76.50;;;;;;5085570;28;20050;-54
2022/02/05 22:37:03;;;;;;;20.25;8.75;;;28.50;76.00;;;;;;5084590;28;20021;-49
2022/02/05 22:39:31;;;;;;;13.25;9.05;;;28.50;76.40;;;;;;5084739;28;20051;-53
2022/02/05 22:41:59;;;;;;;13.95;8.68;;;28.50;76.40;;;;;;5083834;28;20016;-56
2022/02/05 22:44:25;;;;;;;17.48;9.18;;;28.50;76.60;;;;;;5084240;28;20035;-51
2022/02/05 22:46:52;;;;;;;14.40;8.23;;;28.50;76.90;;;;;;5083791;28;20028;-55
2022/02/05 22:49:19;;;;;;;13.90;7.68;;;28.40;77.10;;;;;;5084500;28;20091;-53
2022/02/05 22:51:48;;;;;;;16.52;7.93;;;28.40;77.80;;;;;;5083322;28;20212;-53
2022/02/05 22:54:16;;;;;;;19.33;8.15;;;28.40;78.30;;;;;;5085090;28;20028;-47
2022/02/05 22:56:43;;;;;;;18.52;9.13;;;28.40;78.70;;;;;;5085251;28;20060;-52
2022/02/05 22:59:11;;;;;;;17.15;9.43;;;28.40;79.30;;;;;;5085653;28;20024;-48
2022/02/05 23:01:39;;;;;;;16.55;10.02;;;28.40;79.20;;;;;;5084956;28;20039;-55
2022/02/05 23:04:05;;;;;;;18.63;9.70;;;28.40;79.70;;;;;;5085646;28;20052;-56
2022/02/05 23:06:32;;;;;;;22.33;9.13;;;28.40;80.10;;;;;;5084778;28;20020;-53
2022/02/05 23:09:07;;;;;;;17.92;8.95;;;28.40;80.30;;;;;;5085416;28;20037;-52
2022/02/05 23:43:41;;;;;;;18.73;12.02;;;28.30;81.50;;;;;;5081166;28;20025;-52
2022/02/05 23:46:08;;;;;;;20.70;9.57;;;28.30;81.70;;;;;;5084293;28;20083;-52
2022/02/05 23:48:40;;;;;;;27.17;12.98;;;28.30;81.70;;;;;;5084527;28;20089;-56
2022/02/05 23:51:07;;;;;;;25.40;11.82;;;28.30;81.20;;;;;;5084057;28;20200;-56
2022/02/05 23:53:33;;;;;;;18.80;10.50;;;28.30;81.00;;;;;;5084519;28;20032;-53
2022/02/05 23:56:00;;;;;;;18.48;9.10;;;28.30;81.00;;;;;;5084026;28;20025;-59
2022/02/05 23:58:27;;;;;;;12.70;7.97;;;28.30;81.20;;;;;;5082666;28;20086;-55
